Time;durP1;ratioP1;P1;durP2;ratioP2;P2;SDS_P1;SDS_P2;PMS_P1;PMS_P2;Temp;Humidity;BMP_temperature;BMP_pressure;BME280_temperature;BME280_humidity;BME280_pressure;Samples;Min_cycle;Max_cycle;Signal;HPM_P1;HPM_P2
2021/09/10 00:00:33;;;;;;;3.10;2.08;;;20.20;84.40;;;;;;5049155;28;20061;-82
2021/09/10 00:02:58;;;;;;;3.38;1.80;;;20.30;84.30;;;;;;5053831;28;20353;-82
2021/09/10 00:05:24;;;;;;;3.97;1.67;;;20.30;84.40;;;;;;5053790;28;20079;-82
2021/09/10 00:07:50;;;;;;;4.60;1.70;;;20.30;84.30;;;;;;5049576;28;20063;-81
2021/09/10 00:10:15;;;;;;;3.17;1.88;;;20.30;84.30;;;;;;5033723;28;20459;-82
2021/09/10 00:12:41;;;;;;;3.95;2.05;;;20.20;84.40;;;;;;5033652;28;20087;-82
2021/09/10 00:15:08;;;;;;;3.97;1.98;;;20.20;84.60;;;;;;5033575;28;20055;-82
2021/09/10 00:17:45;;;;;;;2.60;1.80;;;20.20;84.60;;;;;;5033722;28;20563;-82
2021/09/10 00:20:12;;;;;;;3.47;1.90;;;20.30;84.60;;;;;;5051909;28;20117;-82
2021/09/10 00:22:38;;;;;;;4.63;2.05;;;20.10;84.90;;;;;;5053048;28;20097;-82
2021/09/10 00:25:04;;;;;;;3.92;2.00;;;20.20;85.00;;;;;;5037633;28;20494;-82
2021/09/10 00:27:30;;;;;;;4.05;1.98;;;20.10;85.10;;;;;;5054198;28;20032;-82
2021/09/10 00:29:55;;;;;;;3.55;2.17;;;20.10;85.10;;;;;;5038700;28;20034;-82
2021/09/10 00:32:21;;;;;;;3.60;2.20;;;20.10;85.20;;;;;;5038659;28;20038;-82
2021/09/10 00:34:47;;;;;;;4.15;1.98;;;20.10;85.30;;;;;;5038734;28;20060;-82
2021/09/10 00:37:13;;;;;;;4.78;1.85;;;20.10;85.40;;;;;;5038661;28;20021;-82
2021/09/10 00:39:38;;;;;;;4.53;2.72;;;20.20;85.10;;;;;;5038697;28;20404;-81
2021/09/10 00:42:04;;;;;;;4.00;2.20;;;20.10;85.20;;;;;;5050361;28;20029;-82
2021/09/10 00:44:30;;;;;;;4.68;2.20;;;20.00;85.10;;;;;;5058568;28;20029;-81
2021/09/10 00:46:56;;;;;;;5.82;2.22;;;20.10;85.20;;;;;;5057121;28;20824;-82
2021/09/10 00:49:21;;;;;;;4.60;2.30;;;20.00;85.40;;;;;;5058356;28;20395;-81
2021/09/10 00:51:47;;;;;;;6.53;2.70;;;20.00;85.30;;;;;;5057236;28;20037;-82
2021/09/10 00:54:13;;;;;;;6.68;2.70;;;19.80;85.60;;;;;;5056940;28;20071;-81
2021/09/10 00:56:39;;;;;;;5.95;2.55;;;19.80;85.60;;;;;;5040151;28;20603;-81
2021/09/10 00:59:05;;;;;;;5.90;2.72;;;19.70;85.80;;;;;;5038547;28;20033;-82
2021/09/10 01:01:32;;;;;;;7.28;2.60;;;19.60;86.20;;;;;;5038198;28;20502;-81
2021/09/10 01:03:59;;;;;;;5.93;2.75;;;19.60;86.20;;;;;;5050351;28;20039;-82
2021/09/10 01:06:26;;;;;;;7.57;2.80;;;19.70;86.20;;;;;;5056604;28;20448;-82
2021/09/10 01:09:09;;;;;;;4.65;2.65;;;19.70;85.80;;;;;;5053716;28;20060;-82
2021/09/10 01:11:35;;;;;;;4.88;2.97;;;19.70;85.80;;;;;;5036701;28;20036;-81
2021/09/10 01:14:01;;;;;;;4.40;2.55;;;19.80;85.20;;;;;;5036776;28;20124;-82
2021/09/10 01:16:26;;;;;;;4.03;2.60;;;19.80;85.00;;;;;;5038082;28;20539;-82
2021/09/10 01:18:52;;;;;;;4.82;2.80;;;19.90;84.90;;;;;;5046669;28;20025;-81
2021/09/10 01:21:18;;;;;;;4.55;2.80;;;19.90;84.60;;;;;;5055795;28;20029;-81
2021/09/10 01:23:44;;;;;;;4.10;2.30;;;19.90;84.50;;;;;;5037910;28;20033;-82
2021/09/10 01:26:09;;;;;;;4.60;3.00;;;19.90;84.40;;;;;;5050722;28;20144;-81
2021/09/10 01:28:36;;;;;;;8.73;3.17;;;19.90;84.30;;;;;;5036497;28;20099;-82
2021/09/10 01:31:02;;;;;;;3.42;2.60;;;19.80;84.50;;;;;;5036467;28;20072;-82
2021/09/10 01:33:28;;;;;;;6.25;3.10;;;19.70;84.50;;;;;;5050138;28;20401;-81
2021/09/10 01:35:54;;;;;;;5.70;3.25;;;19.60;85.10;;;;;;5057642;28;20057;-82
2021/09/10 01:38:19;;;;;;;5.03;2.80;;;19.60;85.10;;;;;;5046930;28;20033;-82
2021/09/10 01:40:45;;;;;;;4.50;2.83;;;19.70;85.00;;;;;;5049564;28;20021;-81
2021/09/10 01:43:15;;;;;;;4.88;3.30;;;19.70;85.00;;;;;;5056018;28;20196;-81
2021/09/10 01:45:40;;;;;;;6.38;3.50;;;19.80;84.70;;;;;;5051696;28;20519;-82
2021/09/10 01:48:06;;;;;;;4.70;3.17;;;19.80;84.60;;;;;;5035784;28;20034;-82
2021/09/10 01:50:32;;;;;;;3.63;2.92;;;19.80;84.50;;;;;;5037124;28;20096;-82
2021/09/10 01:52:57;;;;;;;6.60;2.97;;;19.90;84.20;;;;;;5036141;28;20040;-81
2021/09/10 01:55:23;;;;;;;5.40;3.30;;;19.80;84.40;;;;;;5037185;28;20377;-81
2021/09/10 01:57:50;;;;;;;5.18;3.22;;;19.80;84.60;;;;;;5035771;28;20534;-81
2021/09/10 02:00:17;;;;;;;6.80;2.97;;;19.80;85.10;;;;;;5035932;28;20033;-82
2021/09/10 02:02:43;;;;;;;5.85;3.35;;;19.80;85.20;;;;;;5035647;28;20361;-82
2021/09/10 02:05:10;;;;;;;6.95;3.13;;;19.70;85.50;;;;;;5035714;28;20072;-81
2021/09/10 02:07:36;;;;;;;4.32;3.05;;;19.70;85.30;;;;;;5052714;28;20067;-82
2021/09/10 02:10:08;;;;;;;5.47;3.30;;;19.50;85.60;;;;;;5055737;28;20027;-82
2021/09/10 02:12:34;;;;;;;7.13;3.58;;;19.60;85.60;;;;;;5055445;28;20064;-81
2021/09/10 02:14:59;;;;;;;3.97;3.30;;;19.50;85.50;;;;;;5045130;28;20029;-81
2021/09/10 02:17:25;;;;;;;6.22;4.00;;;19.50;85.70;;;;;;5036695;28;20096;-81
2021/09/10 02:19:51;;;;;;;4.72;3.85;;;19.40;85.70;;;;;;5036708;28;20041;-82
2021/09/10 02:22:17;;;;;;;6.00;3.78;;;19.40;85.70;;;;;;5036543;28;20033;-81
2021/09/10 02:24:43;;;;;;;7.20;3.97;;;19.50;85.50;;;;;;5052209;28;20511;-82
2021/09/10 02:27:09;;;;;;;5.95;4.20;;;19.50;85.10;;;;;;5036462;28;20034;-82
2021/09/10 02:29:35;;;;;;;5.97;3.70;;;19.50;85.20;;;;;;5036507;28;20488;-82
2021/09/10 02:32:00;;;;;;;6.32;3.50;;;19.50;85.50;;;;;;5035200;28;20057;-82
2021/09/10 02:34:28;;;;;;;5.85;3.45;;;19.40;85.30;;;;;;5047275;28;20049;-81
2021/09/10 02:36:54;;;;;;;5.68;3.95;;;19.50;85.40;;;;;;5056434;28;20029;-82
2021/09/10 02:39:19;;;;;;;8.43;3.63;;;19.50;85.60;;;;;;5054131;28;20368;-81
2021/09/10 02:41:45;;;;;;;5.93;3.75;;;19.40;85.40;;;;;;5071651;28;20037;-81
2021/09/10 02:44:11;;;;;;;6.70;4.07;;;19.40;85.60;;;;;;5075663;28;20035;-81
2021/09/10 02:46:38;;;;;;;7.60;3.97;;;19.50;85.50;;;;;;5059912;28;20509;-82
2021/09/10 02:49:04;;;;;;;4.43;4.00;;;19.40;85.30;;;;;;5051639;28;20029;-82
2021/09/10 02:51:29;;;;;;;6.93;4.10;;;19.30;85.60;;;;;;5050607;28;20109;-81
2021/09/10 02:53:55;;;;;;;5.68;3.85;;;19.40;85.40;;;;;;5054885;28;20115;-82
2021/09/10 02:56:21;;;;;;;7.75;3.67;;;19.40;85.20;;;;;;5041182;28;20033;-82
2021/09/10 02:58:46;;;;;;;8.15;4.35;;;19.30;85.20;;;;;;5036260;28;20046;-81
2021/09/10 03:01:12;;;;;;;7.35;4.22;;;19.30;85.60;;;;;;5053778;28;20062;-81
2021/09/10 03:03:38;;;;;;;5.72;4.10;;;19.20;85.60;;;;;;5046786;28;20044;-82
2021/09/10 03:06:04;;;;;;;7.20;4.07;;;19.10;85.70;;;;;;5034496;28;20033;-82
2021/09/10 03:08:30;;;;;;;7.75;4.20;;;19.20;85.60;;;;;;5034577;28;20499;-81
2021/09/10 03:10:55;;;;;;;6.80;4.10;;;19.20;85.30;;;;;;5035972;28;20369;-81
2021/09/10 03:13:21;;;;;;;8.10;4.93;;;19.20;85.30;;;;;;5035493;28;20037;-81
2021/09/10 03:15:47;;;;;;;5.38;4.13;;;19.20;85.50;;;;;;5035745;28;20080;-81
2021/09/10 03:18:12;;;;;;;5.32;4.38;;;19.10;85.70;;;;;;5054242;28;20028;-82
2021/09/10 03:20:38;;;;;;;8.20;4.38;;;19.10;85.50;;;;;;5055804;28;20029;-81
2021/09/10 03:23:04;;;;;;;7.32;3.70;;;19.00;85.70;;;;;;5054189;28;20024;-81
2021/09/10 03:25:37;;;;;;;8.82;4.60;;;19.10;85.90;;;;;;5044527;28;20061;-81
2021/09/10 03:28:03;;;;;;;6.80;4.45;;;19.20;85.50;;;;;;5049346;28;20083;-82
2021/09/10 03:30:29;;;;;;;6.72;4.13;;;19.20;85.20;;;;;;5055413;28;20036;-81
2021/09/10 03:32:54;;;;;;;5.97;4.20;;;19.10;85.10;;;;;;5043574;28;20034;-81
2021/09/10 03:35:20;;;;;;;8.27;4.75;;;19.20;85.20;;;;;;5035566;28;20033;-81
2021/09/10 03:37:46;;;;;;;7.05;4.25;;;19.20;85.00;;;;;;5035759;28;20078;-81
2021/09/10 03:40:12;;;;;;;5.53;4.38;;;19.20;85.20;;;;;;5056165;28;20403;-81
2021/09/10 03:42:43;;;;;;;6.72;4.72;;;19.20;85.40;;;;;;5073978;28;20085;-81
2021/09/10 03:45:09;;;;;;;5.65;4.15;;;19.30;85.10;;;;;;5058174;28;20029;-81
2021/09/10 03:47:35;;;;;;;6.15;4.18;;;19.20;85.10;;;;;;5035203;28;20021;-81
2021/09/10 03:50:01;;;;;;;5.53;3.75;;;19.30;85.30;;;;;;5033731;28;20109;-81
2021/09/10 03:52:26;;;;;;;5.40;4.35;;;19.30;85.30;;;;;;5035305;28;20476;-81
2021/09/10 03:54:52;;;;;;;8.13;4.43;;;19.30;85.20;;;;;;5051596;28;20373;-81
2021/09/10 03:57:18;;;;;;;8.30;4.50;;;19.30;85.10;;;;;;5039269;28;20069;-81
2021/09/10 03:59:49;;;;;;;8.52;4.25;;;19.30;85.10;;;;;;5039470;28;20021;-81
2021/09/10 04:02:14;;;;;;;6.95;4.63;;;19.30;85.20;;;;;;5039544;28;20571;-81
2021/09/10 04:04:40;;;;;;;6.47;4.13;;;19.30;85.30;;;;;;5039308;28;20092;-81
2021/09/10 04:07:06;;;;;;;4.97;4.00;;;19.30;85.20;;;;;;5039051;28;20120;-81
2021/09/10 04:09:31;;;;;;;7.82;4.15;;;19.10;85.50;;;;;;5054645;28;20076;-81
2021/09/10 04:11:57;;;;;;;8.25;5.05;;;19.20;85.80;;;;;;5039379;28;20034;-82
2021/09/10 04:14:23;;;;;;;8.18;4.30;;;19.20;85.40;;;;;;5054633;28;20064;-80
2021/09/10 04:16:58;;;;;;;8.98;4.72;;;19.10;85.80;;;;;;5053071;28;20030;-77
2021/09/10 04:19:24;;;;;;;6.38;5.05;;;19.10;85.60;;;;;;5039340;28;20456;-77
2021/09/10 04:21:50;;;;;;;7.95;4.90;;;19.00;85.40;;;;;;5038746;28;20233;-81
2021/09/10 04:24:17;;;;;;;9.45;5.07;;;19.00;85.90;;;;;;5038888;28;20061;-80
2021/09/10 04:26:44;;;;;;;6.25;4.43;;;19.10;85.60;;;;;;5042593;28;20033;-81
2021/09/10 04:29:09;;;;;;;6.22;4.82;;;19.00;85.80;;;;;;5057530;28;20025;-81
2021/09/10 04:31:35;;;;;;;6.07;5.20;;;19.10;85.50;;;;;;5058631;28;20033;-81
2021/09/10 04:34:03;;;;;;;8.95;4.93;;;19.10;85.60;;;;;;5058549;28;20112;-81
2021/09/10 04:36:29;;;;;;;9.45;5.22;;;19.20;85.60;;;;;;5058549;28;20051;-81
2021/09/10 04:38:55;;;;;;;7.82;4.75;;;19.20;85.60;;;;;;5048093;28;20026;-81
2021/09/10 04:41:20;;;;;;;6.88;4.40;;;19.20;85.40;;;;;;5061683;28;20036;-81
2021/09/10 04:43:46;;;;;;;6.82;4.60;;;19.20;85.50;;;;;;5078737;28;20028;-80
